sensor_id;sensor_type;location;lat;lon;timestamp;pressure;altitude;pressure_sealevel;temperature;humidity
69593;BME280;56796;50.122;14.468;2023-03-26T00:03:58;970.38;;;8.28;74.78
69593;BME280;56796;50.122;14.468;2023-03-26T00:23:25;970.48;;;8.29;74.18
69593;BME280;56796;50.122;14.468;2023-03-26T00:42:51;970.53;;;8.26;74.39
69593;BME280;56796;50.122;14.468;2023-03-26T01:02:18;970.48;;;8.32;74.77
69593;BME280;56796;50.122;14.468;2023-03-26T01:21:43;970.51;;;8.21;75.26
69593;BME280;56796;50.122;14.468;2023-03-26T01:41:09;970.42;;;8;75.98
69593;BME280;56796;50.122;14.468;2023-03-26T02:00:36;970.43;;;7.79;76.93
69593;BME280;56796;50.122;14.468;2023-03-26T02:20:02;970.47;;;7.66;77.93
69593;BME280;56796;50.122;14.468;2023-03-26T02:39:27;970.57;;;7.71;78.22
69593;BME280;56796;50.122;14.468;2023-03-26T02:58:53;970.36;;;7.78;78.23
69593;BME280;56796;50.122;14.468;2023-03-26T03:18:19;970.25;;;7.74;78.65
69593;BME280;56796;50.122;14.468;2023-03-26T03:37:44;970.36;;;7.68;79.16
69593;BME280;56796;50.122;14.468;2023-03-26T03:57:10;970.43;;;7.69;79.91
69593;BME280;56796;50.122;14.468;2023-03-26T04:16:36;970.34;;;7.72;80.07
69593;BME280;56796;50.122;14.468;2023-03-26T04:36:04;970.29;;;7.82;79.44
69593;BME280;56796;50.122;14.468;2023-03-26T04:55:34;970.19;;;7.81;79.04
69593;BME280;56796;50.122;14.468;2023-03-26T05:14:52;970.23;;;7.82;79.22
69593;BME280;56796;50.122;14.468;2023-03-26T05:34:18;970.18;;;7.88;79.58
69593;BME280;56796;50.122;14.468;2023-03-26T05:53:45;970.12;;;8.17;78.69
69593;BME280;56796;50.122;14.468;2023-03-26T06:13:14;970.02;;;8.46;77.49
69593;BME280;56796;50.122;14.468;2023-03-26T06:32:41;969.88;;;8.76;75.81
69593;BME280;56796;50.122;14.468;2023-03-26T06:52:10;969.92;;;9.33;75.09
69593;BME280;56796;50.122;14.468;2023-03-26T07:11:38;970;;;9.3;73.78
69593;BME280;56796;50.122;14.468;2023-03-26T07:31:11;969.91;;;9.08;74.51
69593;BME280;56796;50.122;14.468;2023-03-26T07:50:25;969.63;;;9.24;74.67
69593;BME280;56796;50.122;14.468;2023-03-26T08:09:55;969.58;;;9.35;73.69
69593;BME280;56796;50.122;14.468;2023-03-26T08:29:22;969.41;;;10.13;71.29
69593;BME280;56796;50.122;14.468;2023-03-26T09:28:04;968.58;;;14.02;54.83
69593;BME280;56796;50.122;14.468;2023-03-26T09:47:26;968.56;;;12.79;56.44
69593;BME280;56796;50.122;14.468;2023-03-26T10:06:51;968.29;;;13.37;55.74
69593;BME280;56796;50.122;14.468;2023-03-26T10:26:20;967.96;;;13.52;55.4
69593;BME280;56796;50.122;14.468;2023-03-26T11:24:46;967.21;;;15.83;49.23
69593;BME280;56796;50.122;14.468;2023-03-26T11:44:15;967.11;;;14.36;50.59
69593;BME280;56796;50.122;14.468;2023-03-26T12:03:29;967.08;;;13.64;51.59
69593;BME280;56796;50.122;14.468;2023-03-26T12:22:51;967.05;;;12.3;54.6
69593;BME280;56796;50.122;14.468;2023-03-26T13:01:41;966.78;;;12.27;55.91
69593;BME280;56796;50.122;14.468;2023-03-26T13:21:04;966.68;;;11.17;62.13
69593;BME280;56796;50.122;14.468;2023-03-26T13:40:28;966.75;;;10.96;65.24
69593;BME280;56796;50.122;14.468;2023-03-26T13:59:51;966.69;;;10.18;72.36
69593;BME280;56796;50.122;14.468;2023-03-26T14:19:20;966.76;;;9.14;82.05
69593;BME280;56796;50.122;14.468;2023-03-26T15:17:34;966.22;;;8.78;89.95
69593;BME280;56796;50.122;14.468;2023-03-26T15:56:24;965.89;;;8.66;91.71
69593;BME280;56796;50.122;14.468;2023-03-26T16:15:48;965.71;;;8.21;90.09
69593;BME280;56796;50.122;14.468;2023-03-26T16:54:40;965.63;;;7.91;89.91
69593;BME280;56796;50.122;14.468;2023-03-26T17:14:06;965.69;;;7.64;93.65
69593;BME280;56796;50.122;14.468;2023-03-26T17:33:30;965.63;;;7.6;94.91
69593;BME280;56796;50.122;14.468;2023-03-26T17:52:54;965.76;;;7.57;96.32
69593;BME280;56796;50.122;14.468;2023-03-26T18:31:44;965.84;;;8.39;98.3
69593;BME280;56796;50.122;14.468;2023-03-26T18:51:14;965.68;;;7.6;98.63
69593;BME280;56796;50.122;14.468;2023-03-26T19:10:32;965.31;;;7.27;98.5
69593;BME280;56796;50.122;14.468;2023-03-26T19:29:58;965.17;;;7.03;99
69593;BME280;56796;50.122;14.468;2023-03-26T19:49:25;964.97;;;6.39;100
69593;BME280;56796;50.122;14.468;2023-03-26T20:08:48;964.91;;;5.86;100
69593;BME280;56796;50.122;14.468;2023-03-26T20:28:13;964.93;;;5.82;100
69593;BME280;56796;50.122;14.468;2023-03-26T20:47:38;964.91;;;5.86;100
69593;BME280;56796;50.122;14.468;2023-03-26T21:07:04;964.81;;;5.93;100
69593;BME280;56796;50.122;14.468;2023-03-26T21:26:31;964.8;;;6.13;100
69593;BME280;56796;50.122;14.468;2023-03-26T21:45:56;964.71;;;6.07;100
69593;BME280;56796;50.122;14.468;2023-03-26T22:05:22;964.47;;;6;100
69593;BME280;56796;50.122;14.468;2023-03-26T22:24:47;964.44;;;5.77;100
69593;BME280;56796;50.122;14.468;2023-03-26T22:44:16;964.21;;;5.78;100
69593;BME280;56796;50.122;14.468;2023-03-26T23:03:34;964.07;;;5.37;100
69593;BME280;56796;50.122;14.468;2023-03-26T23:22:58;964.55;;;5.27;100
69593;BME280;56796;50.122;14.468;2023-03-26T23:42:28;964.96;;;5.12;100
